METAR Data
IDs: Format: Raw Decoded Include TAF

Data at: 2007 UTC 25 Oct 2021

ESMK 251950Z AUTO 19003KT 7000 BKN016/// 06/06 Q1015